sensor_id;sensor_type;location;lat;lon;timestamp;P1;durP1;ratioP1;P2;durP2;ratioP2
44228;SDS011;29904;51.058;5.378;2023-03-31T00:02:22;4.25;;;0.80;;
44228;SDS011;29904;51.058;5.378;2023-03-31T00:04:48;3.85;;;0.88;;
44228;SDS011;29904;51.058;5.378;2023-03-31T00:07:17;4.60;;;0.98;;
44228;SDS011;29904;51.058;5.378;2023-03-31T00:09:49;4.50;;;1.00;;
44228;SDS011;29904;51.058;5.378;2023-03-31T00:12:21;5.13;;;1.02;;
44228;SDS011;29904;51.058;5.378;2023-03-31T00:14:47;4.17;;;0.80;;
44228;SDS011;29904;51.058;5.378;2023-03-31T00:17:13;5.53;;;0.90;;
44228;SDS011;29904;51.058;5.378;2023-03-31T00:19:39;4.00;;;1.00;;
44228;SDS011;29904;51.058;5.378;2023-03-31T00:22:06;3.92;;;1.02;;
44228;SDS011;29904;51.058;5.378;2023-03-31T00:24:32;5.05;;;0.90;;
44228;SDS011;29904;51.058;5.378;2023-03-31T00:26:59;4.85;;;1.05;;
44228;SDS011;29904;51.058;5.378;2023-03-31T00:29:29;4.53;;;0.98;;
44228;SDS011;29904;51.058;5.378;2023-03-31T00:31:55;4.38;;;1.00;;
44228;SDS011;29904;51.058;5.378;2023-03-31T00:34:23;4.07;;;0.80;;
44228;SDS011;29904;51.058;5.378;2023-03-31T00:36:49;3.72;;;0.73;;
44228;SDS011;29904;51.058;5.378;2023-03-31T00:39:20;6.60;;;1.15;;
44228;SDS011;29904;51.058;5.378;2023-03-31T00:41:48;5.50;;;1.10;;
44228;SDS011;29904;51.058;5.378;2023-03-31T00:49:19;6.35;;;1.10;;
44228;SDS011;29904;51.058;5.378;2023-03-31T00:51:51;6.75;;;1.23;;
44228;SDS011;29904;51.058;5.378;2023-03-31T00:54:20;7.43;;;1.25;;
44228;SDS011;29904;51.058;5.378;2023-03-31T00:56:50;5.45;;;1.20;;
44228;SDS011;29904;51.058;5.378;2023-03-31T00:59:19;5.97;;;1.37;;
44228;SDS011;29904;51.058;5.378;2023-03-31T01:01:54;8.38;;;1.38;;
44228;SDS011;29904;51.058;5.378;2023-03-31T01:04:23;7.63;;;1.17;;
44228;SDS011;29904;51.058;5.378;2023-03-31T01:06:57;8.23;;;1.48;;
44228;SDS011;29904;51.058;5.378;2023-03-31T01:09:37;11.35;;;1.58;;
44228;SDS011;29904;51.058;5.378;2023-03-31T01:12:05;8.68;;;1.42;;
44228;SDS011;29904;51.058;5.378;2023-03-31T01:14:33;8.00;;;1.25;;
44228;SDS011;29904;51.058;5.378;2023-03-31T01:16:59;9.35;;;1.42;;
44228;SDS011;29904;51.058;5.378;2023-03-31T01:28:25;11.93;;;1.60;;
44228;SDS011;29904;51.058;5.378;2023-03-31T01:33:59;9.45;;;1.48;;
44228;SDS011;29904;51.058;5.378;2023-03-31T01:47:34;11.13;;;2.10;;
44228;SDS011;29904;51.058;5.378;2023-03-31T01:50:05;9.23;;;1.48;;
44228;SDS011;29904;51.058;5.378;2023-03-31T01:52:46;10.55;;;1.60;;
44228;SDS011;29904;51.058;5.378;2023-03-31T01:55:22;9.70;;;1.75;;
44228;SDS011;29904;51.058;5.378;2023-03-31T01:57:56;10.63;;;1.40;;
44228;SDS011;29904;51.058;5.378;2023-03-31T02:00:30;9.38;;;1.48;;
44228;SDS011;29904;51.058;5.378;2023-03-31T02:05:39;7.93;;;1.50;;
44228;SDS011;29904;51.058;5.378;2023-03-31T02:08:11;9.32;;;1.50;;
44228;SDS011;29904;51.058;5.378;2023-03-31T02:10:40;8.57;;;1.55;;
44228;SDS011;29904;51.058;5.378;2023-03-31T02:13:07;8.57;;;1.50;;
44228;SDS011;29904;51.058;5.378;2023-03-31T02:15:37;8.27;;;1.33;;
44228;SDS011;29904;51.058;5.378;2023-03-31T02:18:09;10.43;;;1.73;;
44228;SDS011;29904;51.058;5.378;2023-03-31T02:20:41;8.50;;;1.40;;
44228;SDS011;29904;51.058;5.378;2023-03-31T02:23:12;7.45;;;1.30;;
44228;SDS011;29904;51.058;5.378;2023-03-31T02:26:13;8.67;;;1.20;;
44228;SDS011;29904;51.058;5.378;2023-03-31T02:28:37;8.07;;;1.20;;
44228;SDS011;29904;51.058;5.378;2023-03-31T02:34:07;8.27;;;1.45;;
44228;SDS011;29904;51.058;5.378;2023-03-31T02:36:35;6.57;;;1.20;;
44228;SDS011;29904;51.058;5.378;2023-03-31T02:39:03;9.47;;;1.30;;
44228;SDS011;29904;51.058;5.378;2023-03-31T02:41:32;4.40;;;0.93;;
44228;SDS011;29904;51.058;5.378;2023-03-31T02:43:58;6.90;;;1.30;;
44228;SDS011;29904;51.058;5.378;2023-03-31T02:46:25;8.43;;;1.13;;
44228;SDS011;29904;51.058;5.378;2023-03-31T02:48:54;5.32;;;1.00;;
44228;SDS011;29904;51.058;5.378;2023-03-31T03:06:48;7.03;;;1.08;;
44228;SDS011;29904;51.058;5.378;2023-03-31T03:14:58;4.50;;;0.77;;
44228;SDS011;29904;51.058;5.378;2023-03-31T03:17:29;5.10;;;0.75;;
44228;SDS011;29904;51.058;5.378;2023-03-31T03:20:00;4.30;;;1.02;;
44228;SDS011;29904;51.058;5.378;2023-03-31T03:22:32;5.60;;;0.80;;
44228;SDS011;29904;51.058;5.378;2023-03-31T03:25:01;4.57;;;0.82;;
44228;SDS011;29904;51.058;5.378;2023-03-31T03:27:28;4.65;;;0.80;;
44228;SDS011;29904;51.058;5.378;2023-03-31T03:29:54;6.90;;;1.00;;
44228;SDS011;29904;51.058;5.378;2023-03-31T03:32:20;6.50;;;0.93;;
44228;SDS011;29904;51.058;5.378;2023-03-31T03:34:46;5.03;;;0.88;;
44228;SDS011;29904;51.058;5.378;2023-03-31T03:37:12;5.57;;;0.90;;
44228;SDS011;29904;51.058;5.378;2023-03-31T03:39:39;4.63;;;0.80;;
44228;SDS011;29904;51.058;5.378;2023-03-31T03:42:05;3.97;;;0.68;;
44228;SDS011;29904;51.058;5.378;2023-03-31T03:44:31;4.20;;;0.70;;
44228;SDS011;29904;51.058;5.378;2023-03-31T03:46:58;4.65;;;0.80;;
44228;SDS011;29904;51.058;5.378;2023-03-31T03:49:24;3.97;;;0.70;;
44228;SDS011;29904;51.058;5.378;2023-03-31T03:51:50;4.97;;;1.00;;
44228;SDS011;29904;51.058;5.378;2023-03-31T03:54:16;4.35;;;1.00;;
44228;SDS011;29904;51.058;5.378;2023-03-31T03:56:42;4.80;;;1.00;;
44228;SDS011;29904;51.058;5.378;2023-03-31T03:59:09;5.03;;;0.95;;
44228;SDS011;29904;51.058;5.378;2023-03-31T04:01:36;5.82;;;1.02;;
44228;SDS011;29904;51.058;5.378;2023-03-31T04:04:02;4.10;;;0.90;;
44228;SDS011;29904;51.058;5.378;2023-03-31T04:06:28;3.90;;;1.00;;
44228;SDS011;29904;51.058;5.378;2023-03-31T04:08:56;4.03;;;0.70;;
44228;SDS011;29904;51.058;5.378;2023-03-31T04:11:23;4.18;;;0.68;;
44228;SDS011;29904;51.058;5.378;2023-03-31T04:13:50;5.03;;;0.70;;
44228;SDS011;29904;51.058;5.378;2023-03-31T04:16:15;4.93;;;0.77;;
44228;SDS011;29904;51.058;5.378;2023-03-31T04:18:41;1.97;;;0.50;;
44228;SDS011;29904;51.058;5.378;2023-03-31T04:21:12;4.32;;;0.82;;
44228;SDS011;29904;51.058;5.378;2023-03-31T04:23:46;5.05;;;0.98;;
44228;SDS011;29904;51.058;5.378;2023-03-31T04:26:14;3.78;;;0.70;;
44228;SDS011;29904;51.058;5.378;2023-03-31T04:28:42;4.53;;;0.70;;
44228;SDS011;29904;51.058;5.378;2023-03-31T04:31:11;5.38;;;0.90;;
44228;SDS011;29904;51.058;5.378;2023-03-31T04:33:52;3.20;;;0.75;;
44228;SDS011;29904;51.058;5.378;2023-03-31T04:36:19;6.30;;;0.90;;
44228;SDS011;29904;51.058;5.378;2023-03-31T04:38:46;5.97;;;0.80;;
44228;SDS011;29904;51.058;5.378;2023-03-31T04:41:17;4.43;;;0.80;;
44228;SDS011;29904;51.058;5.378;2023-03-31T04:43:43;4.35;;;0.73;;
44228;SDS011;29904;51.058;5.378;2023-03-31T04:46:10;4.28;;;0.80;;
44228;SDS011;29904;51.058;5.378;2023-03-31T04:48:36;4.88;;;1.00;;
44228;SDS011;29904;51.058;5.378;2023-03-31T04:51:02;2.53;;;0.60;;
44228;SDS011;29904;51.058;5.378;2023-03-31T04:53:30;3.75;;;1.00;;
44228;SDS011;29904;51.058;5.378;2023-03-31T04:55:57;3.70;;;0.80;;
44228;SDS011;29904;51.058;5.378;2023-03-31T04:58:23;5.40;;;0.80;;
44228;SDS011;29904;51.058;5.378;2023-03-31T05:00:51;6.25;;;1.00;;
44228;SDS011;29904;51.058;5.378;2023-03-31T05:03:17;5.25;;;0.95;;
44228;SDS011;29904;51.058;5.378;2023-03-31T05:05:43;4.18;;;0.80;;
44228;SDS011;29904;51.058;5.378;2023-03-31T05:08:09;5.88;;;1.20;;
44228;SDS011;29904;51.058;5.378;2023-03-31T05:10:35;4.75;;;0.77;;
44228;SDS011;29904;51.058;5.378;2023-03-31T05:13:01;2.47;;;0.80;;
44228;SDS011;29904;51.058;5.378;2023-03-31T05:15:28;5.60;;;0.97;;
44228;SDS011;29904;51.058;5.378;2023-03-31T05:17:54;5.30;;;0.80;;
44228;SDS011;29904;51.058;5.378;2023-03-31T05:20:22;4.28;;;0.73;;
44228;SDS011;29904;51.058;5.378;2023-03-31T05:22:48;5.47;;;1.00;;
44228;SDS011;29904;51.058;5.378;2023-03-31T05:25:14;6.15;;;0.80;;
44228;SDS011;29904;51.058;5.378;2023-03-31T05:27:43;3.70;;;0.70;;
44228;SDS011;29904;51.058;5.378;2023-03-31T05:30:11;4.55;;;0.80;;
44228;SDS011;29904;51.058;5.378;2023-03-31T05:32:37;6.05;;;0.98;;
44228;SDS011;29904;51.058;5.378;2023-03-31T05:35:03;4.07;;;0.90;;
44228;SDS011;29904;51.058;5.378;2023-03-31T05:37:29;7.00;;;1.00;;
44228;SDS011;29904;51.058;5.378;2023-03-31T05:39:55;4.53;;;0.90;;
44228;SDS011;29904;51.058;5.378;2023-03-31T05:42:21;6.60;;;1.00;;
44228;SDS011;29904;51.058;5.378;2023-03-31T05:44:49;5.55;;;1.10;;
44228;SDS011;29904;51.058;5.378;2023-03-31T05:47:15;7.05;;;1.10;;
44228;SDS011;29904;51.058;5.378;2023-03-31T05:49:41;6.32;;;1.00;;
44228;SDS011;29904;51.058;5.378;2023-03-31T05:52:08;8.13;;;1.40;;
44228;SDS011;29904;51.058;5.378;2023-03-31T05:54:35;4.45;;;1.10;;
44228;SDS011;29904;51.058;5.378;2023-03-31T05:57:00;5.55;;;1.25;;
44228;SDS011;29904;51.058;5.378;2023-03-31T05:59:26;4.07;;;1.35;;
44228;SDS011;29904;51.058;5.378;2023-03-31T06:01:52;6.73;;;1.40;;
44228;SDS011;29904;51.058;5.378;2023-03-31T06:04:17;6.77;;;1.30;;
44228;SDS011;29904;51.058;5.378;2023-03-31T06:06:47;7.10;;;1.25;;
44228;SDS011;29904;51.058;5.378;2023-03-31T06:09:14;8.65;;;1.42;;
44228;SDS011;29904;51.058;5.378;2023-03-31T06:11:41;5.15;;;1.10;;
44228;SDS011;29904;51.058;5.378;2023-03-31T06:14:07;6.37;;;1.33;;
44228;SDS011;29904;51.058;5.378;2023-03-31T06:16:32;4.40;;;1.10;;
44228;SDS011;29904;51.058;5.378;2023-03-31T06:18:58;5.33;;;1.27;;
44228;SDS011;29904;51.058;5.378;2023-03-31T06:21:24;8.50;;;1.33;;
44228;SDS011;29904;51.058;5.378;2023-03-31T06:23:50;6.20;;;0.82;;
44228;SDS011;29904;51.058;5.378;2023-03-31T06:26:19;7.70;;;1.20;;
44228;SDS011;29904;51.058;5.378;2023-03-31T06:28:48;4.80;;;1.10;;
44228;SDS011;29904;51.058;5.378;2023-03-31T06:31:16;7.90;;;1.20;;
44228;SDS011;29904;51.058;5.378;2023-03-31T06:33:44;6.03;;;1.20;;
44228;SDS011;29904;51.058;5.378;2023-03-31T06:36:12;5.18;;;1.17;;
44228;SDS011;29904;51.058;5.378;2023-03-31T06:38:41;6.80;;;1.00;;
44228;SDS011;29904;51.058;5.378;2023-03-31T06:41:10;4.95;;;1.10;;
44228;SDS011;29904;51.058;5.378;2023-03-31T06:43:38;6.93;;;1.23;;
44228;SDS011;29904;51.058;5.378;2023-03-31T06:46:05;7.03;;;1.60;;
44228;SDS011;29904;51.058;5.378;2023-03-31T06:48:31;8.27;;;1.58;;
44228;SDS011;29904;51.058;5.378;2023-03-31T06:51:00;8.33;;;1.60;;
44228;SDS011;29904;51.058;5.378;2023-03-31T06:53:28;8.17;;;1.40;;
44228;SDS011;29904;51.058;5.378;2023-03-31T06:55:54;7.78;;;1.40;;
44228;SDS011;29904;51.058;5.378;2023-03-31T06:58:22;5.68;;;1.45;;
44228;SDS011;29904;51.058;5.378;2023-03-31T07:00:49;5.40;;;1.10;;
44228;SDS011;29904;51.058;5.378;2023-03-31T07:03:15;6.78;;;1.33;;
44228;SDS011;29904;51.058;5.378;2023-03-31T07:05:46;8.35;;;1.73;;
44228;SDS011;29904;51.058;5.378;2023-03-31T07:08:15;3.40;;;0.82;;
44228;SDS011;29904;51.058;5.378;2023-03-31T07:10:43;8.40;;;1.30;;
44228;SDS011;29904;51.058;5.378;2023-03-31T07:13:12;8.73;;;1.42;;
44228;SDS011;29904;51.058;5.378;2023-03-31T07:15:38;8.82;;;1.60;;
44228;SDS011;29904;51.058;5.378;2023-03-31T07:18:03;7.88;;;1.20;;
44228;SDS011;29904;51.058;5.378;2023-03-31T07:20:29;7.43;;;1.35;;
44228;SDS011;29904;51.058;5.378;2023-03-31T07:22:56;9.95;;;1.85;;
44228;SDS011;29904;51.058;5.378;2023-03-31T07:25:27;6.35;;;1.40;;
44228;SDS011;29904;51.058;5.378;2023-03-31T07:27:52;7.53;;;1.48;;
44228;SDS011;29904;51.058;5.378;2023-03-31T07:30:20;9.77;;;1.48;;
44228;SDS011;29904;51.058;5.378;2023-03-31T07:32:47;9.73;;;1.60;;
44228;SDS011;29904;51.058;5.378;2023-03-31T07:35:14;7.03;;;1.40;;
44228;SDS011;29904;51.058;5.378;2023-03-31T07:37:43;8.48;;;1.42;;
44228;SDS011;29904;51.058;5.378;2023-03-31T07:40:14;7.70;;;1.55;;
44228;SDS011;29904;51.058;5.378;2023-03-31T07:42:49;8.57;;;1.60;;
44228;SDS011;29904;51.058;5.378;2023-03-31T07:45:16;9.27;;;1.58;;
44228;SDS011;29904;51.058;5.378;2023-03-31T07:47:44;7.10;;;1.52;;
44228;SDS011;29904;51.058;5.378;2023-03-31T07:50:11;9.80;;;1.50;;
44228;SDS011;29904;51.058;5.378;2023-03-31T07:52:38;10.38;;;1.58;;
44228;SDS011;29904;51.058;5.378;2023-03-31T07:55:04;9.50;;;1.60;;
44228;SDS011;29904;51.058;5.378;2023-03-31T07:57:32;7.15;;;1.58;;
44228;SDS011;29904;51.058;5.378;2023-03-31T07:59:59;12.10;;;1.70;;
44228;SDS011;29904;51.058;5.378;2023-03-31T08:02:26;7.95;;;1.63;;
44228;SDS011;29904;51.058;5.378;2023-03-31T08:04:51;11.68;;;1.67;;
44228;SDS011;29904;51.058;5.378;2023-03-31T08:07:18;10.32;;;1.90;;
44228;SDS011;29904;51.058;5.378;2023-03-31T08:09:45;10.77;;;1.70;;
44228;SDS011;29904;51.058;5.378;2023-03-31T08:12:14;11.50;;;1.70;;
44228;SDS011;29904;51.058;5.378;2023-03-31T08:14:40;10.00;;;1.70;;
44228;SDS011;29904;51.058;5.378;2023-03-31T08:17:06;7.50;;;1.77;;
44228;SDS011;29904;51.058;5.378;2023-03-31T08:19:32;9.32;;;1.80;;
44228;SDS011;29904;51.058;5.378;2023-03-31T08:21:58;8.43;;;1.58;;
44228;SDS011;29904;51.058;5.378;2023-03-31T08:24:24;9.52;;;1.88;;
44228;SDS011;29904;51.058;5.378;2023-03-31T08:26:49;11.25;;;1.95;;
44228;SDS011;29904;51.058;5.378;2023-03-31T08:29:15;10.07;;;1.85;;
44228;SDS011;29904;51.058;5.378;2023-03-31T08:31:41;8.33;;;2.10;;
44228;SDS011;29904;51.058;5.378;2023-03-31T08:34:06;11.15;;;1.88;;
44228;SDS011;29904;51.058;5.378;2023-03-31T08:36:32;9.75;;;1.95;;
44228;SDS011;29904;51.058;5.378;2023-03-31T08:38:58;13.13;;;2.00;;
44228;SDS011;29904;51.058;5.378;2023-03-31T08:47:12;15.00;;;2.60;;
44228;SDS011;29904;51.058;5.378;2023-03-31T08:49:54;10.00;;;2.22;;
44228;SDS011;29904;51.058;5.378;2023-03-31T08:52:24;11.65;;;2.13;;
44228;SDS011;29904;51.058;5.378;2023-03-31T08:54:57;11.10;;;2.17;;
44228;SDS011;29904;51.058;5.378;2023-03-31T08:57:31;10.68;;;1.90;;
44228;SDS011;29904;51.058;5.378;2023-03-31T09:00:08;10.10;;;1.98;;
44228;SDS011;29904;51.058;5.378;2023-03-31T09:02:45;9.77;;;2.00;;
44228;SDS011;29904;51.058;5.378;2023-03-31T09:08:32;9.77;;;2.20;;
44228;SDS011;29904;51.058;5.378;2023-03-31T09:16:32;10.43;;;2.17;;
44228;SDS011;29904;51.058;5.378;2023-03-31T09:19:02;8.90;;;1.73;;
44228;SDS011;29904;51.058;5.378;2023-03-31T09:21:42;10.85;;;1.88;;
44228;SDS011;29904;51.058;5.378;2023-03-31T09:24:19;11.40;;;2.08;;
44228;SDS011;29904;51.058;5.378;2023-03-31T09:27:05;11.07;;;1.70;;
44228;SDS011;29904;51.058;5.378;2023-03-31T09:29:45;8.73;;;1.90;;
44228;SDS011;29904;51.058;5.378;2023-03-31T09:32:13;10.70;;;1.95;;
44228;SDS011;29904;51.058;5.378;2023-03-31T09:34:40;7.70;;;1.27;;
44228;SDS011;29904;51.058;5.378;2023-03-31T09:37:07;7.00;;;1.60;;
44228;SDS011;29904;51.058;5.378;2023-03-31T09:39:34;7.20;;;1.80;;
44228;SDS011;29904;51.058;5.378;2023-03-31T09:42:00;6.63;;;1.47;;
44228;SDS011;29904;51.058;5.378;2023-03-31T09:44:27;8.05;;;1.00;;
44228;SDS011;29904;51.058;5.378;2023-03-31T09:47:15;8.38;;;1.23;;
44228;SDS011;29904;51.058;5.378;2023-03-31T09:49:49;5.63;;;1.20;;
44228;SDS011;29904;51.058;5.378;2023-03-31T09:54:55;6.33;;;1.07;;
44228;SDS011;29904;51.058;5.378;2023-03-31T09:57:31;5.40;;;1.00;;
44228;SDS011;29904;51.058;5.378;2023-03-31T10:02:38;6.93;;;1.20;;
44228;SDS011;29904;51.058;5.378;2023-03-31T10:05:06;5.07;;;1.10;;
44228;SDS011;29904;51.058;5.378;2023-03-31T10:07:43;5.88;;;0.93;;
44228;SDS011;29904;51.058;5.378;2023-03-31T10:10:09;5.72;;;1.30;;
44228;SDS011;29904;51.058;5.378;2023-03-31T10:12:48;5.45;;;1.00;;
44228;SDS011;29904;51.058;5.378;2023-03-31T10:15:20;5.47;;;1.00;;
44228;SDS011;29904;51.058;5.378;2023-03-31T10:17:52;6.50;;;1.20;;
44228;SDS011;29904;51.058;5.378;2023-03-31T10:23:02;7.93;;;1.40;;
44228;SDS011;29904;51.058;5.378;2023-03-31T10:25:58;7.68;;;1.27;;
44228;SDS011;29904;51.058;5.378;2023-03-31T10:28:25;7.70;;;1.52;;
44228;SDS011;29904;51.058;5.378;2023-03-31T10:30:57;6.33;;;1.27;;
44228;SDS011;29904;51.058;5.378;2023-03-31T10:33:30;5.72;;;1.23;;
44228;SDS011;29904;51.058;5.378;2023-03-31T10:35:59;8.82;;;1.65;;
44228;SDS011;29904;51.058;5.378;2023-03-31T10:38:35;7.53;;;1.40;;
44228;SDS011;29904;51.058;5.378;2023-03-31T10:41:06;9.55;;;1.40;;
44228;SDS011;29904;51.058;5.378;2023-03-31T10:43:42;10.88;;;1.70;;
44228;SDS011;29904;51.058;5.378;2023-03-31T10:46:16;12.02;;;1.80;;
44228;SDS011;29904;51.058;5.378;2023-03-31T10:48:42;10.50;;;1.77;;
44228;SDS011;29904;51.058;5.378;2023-03-31T10:51:16;7.70;;;1.58;;
44228;SDS011;29904;51.058;5.378;2023-03-31T10:53:45;11.35;;;1.75;;
44228;SDS011;29904;51.058;5.378;2023-03-31T11:05:00;10.33;;;1.80;;
44228;SDS011;29904;51.058;5.378;2023-03-31T11:27:24;7.47;;;1.33;;
44228;SDS011;29904;51.058;5.378;2023-03-31T11:33:12;8.40;;;1.58;;
44228;SDS011;29904;51.058;5.378;2023-03-31T11:38:45;8.05;;;1.40;;
44228;SDS011;29904;51.058;5.378;2023-03-31T11:44:01;7.38;;;1.60;;
44228;SDS011;29904;51.058;5.378;2023-03-31T11:46:36;9.60;;;1.40;;
44228;SDS011;29904;51.058;5.378;2023-03-31T11:57:15;7.00;;;1.20;;
44228;SDS011;29904;51.058;5.378;2023-03-31T11:59:47;5.88;;;1.30;;
44228;SDS011;29904;51.058;5.378;2023-03-31T12:02:31;7.88;;;1.50;;
44228;SDS011;29904;51.058;5.378;2023-03-31T12:05:09;6.00;;;1.13;;
44228;SDS011;29904;51.058;5.378;2023-03-31T12:07:38;6.80;;;1.48;;
44228;SDS011;29904;51.058;5.378;2023-03-31T12:12:48;5.30;;;1.08;;
44228;SDS011;29904;51.058;5.378;2023-03-31T12:15:38;6.13;;;1.00;;
44228;SDS011;29904;51.058;5.378;2023-03-31T12:18:10;5.90;;;1.48;;
44228;SDS011;29904;51.058;5.378;2023-03-31T12:20:48;5.28;;;1.20;;
44228;SDS011;29904;51.058;5.378;2023-03-31T12:23:17;5.35;;;1.10;;
44228;SDS011;29904;51.058;5.378;2023-03-31T12:25:49;4.03;;;1.05;;
44228;SDS011;29904;51.058;5.378;2023-03-31T12:28:20;6.38;;;1.10;;
44228;SDS011;29904;51.058;5.378;2023-03-31T12:30:47;5.25;;;0.90;;
44228;SDS011;29904;51.058;5.378;2023-03-31T12:38:37;8.65;;;1.50;;
44228;SDS011;29904;51.058;5.378;2023-03-31T12:41:20;6.28;;;1.10;;
44228;SDS011;29904;51.058;5.378;2023-03-31T12:46:38;6.60;;;1.25;;
44228;SDS011;29904;51.058;5.378;2023-03-31T12:49:20;9.15;;;1.38;;
44228;SDS011;29904;51.058;5.378;2023-03-31T12:57:20;7.68;;;1.45;;
44228;SDS011;29904;51.058;5.378;2023-03-31T13:03:31;7.50;;;1.27;;
44228;SDS011;29904;51.058;5.378;2023-03-31T13:05:55;6.10;;;1.30;;
44228;SDS011;29904;51.058;5.378;2023-03-31T13:11:18;6.40;;;1.30;;
44228;SDS011;29904;51.058;5.378;2023-03-31T13:14:35;7.18;;;1.38;;
44228;SDS011;29904;51.058;5.378;2023-03-31T13:20:14;6.55;;;1.50;;
44228;SDS011;29904;51.058;5.378;2023-03-31T13:27:54;6.87;;;1.50;;
44228;SDS011;29904;51.058;5.378;2023-03-31T13:33:03;6.47;;;1.35;;
44228;SDS011;29904;51.058;5.378;2023-03-31T13:35:36;5.90;;;1.33;;
44228;SDS011;29904;51.058;5.378;2023-03-31T13:43:58;8.98;;;1.30;;
44228;SDS011;29904;51.058;5.378;2023-03-31T13:46:48;5.13;;;1.20;;
44228;SDS011;29904;51.058;5.378;2023-03-31T13:51:58;6.15;;;1.00;;
44228;SDS011;29904;51.058;5.378;2023-03-31T14:07:58;3.97;;;0.80;;
44228;SDS011;29904;51.058;5.378;2023-03-31T14:10:30;3.28;;;0.70;;
44228;SDS011;29904;51.058;5.378;2023-03-31T14:13:05;5.80;;;1.07;;
44228;SDS011;29904;51.058;5.378;2023-03-31T14:15:57;2.88;;;0.65;;
44228;SDS011;29904;51.058;5.378;2023-03-31T14:18:34;3.92;;;0.80;;
44228;SDS011;29904;51.058;5.378;2023-03-31T14:21:27;2.63;;;0.60;;
44228;SDS011;29904;51.058;5.378;2023-03-31T14:24:14;1.95;;;0.40;;
44228;SDS011;29904;51.058;5.378;2023-03-31T14:29:43;4.22;;;0.70;;
44228;SDS011;29904;51.058;5.378;2023-03-31T14:32:25;3.38;;;0.65;;
44228;SDS011;29904;51.058;5.378;2023-03-31T14:35:21;3.13;;;0.60;;
44228;SDS011;29904;51.058;5.378;2023-03-31T14:37:52;2.25;;;0.50;;
44228;SDS011;29904;51.058;5.378;2023-03-31T14:40:20;3.10;;;0.65;;
44228;SDS011;29904;51.058;5.378;2023-03-31T14:42:46;1.93;;;0.40;;
44228;SDS011;29904;51.058;5.378;2023-03-31T14:45:17;2.40;;;0.45;;
44228;SDS011;29904;51.058;5.378;2023-03-31T14:47:54;1.85;;;0.40;;
44228;SDS011;29904;51.058;5.378;2023-03-31T14:50:30;2.72;;;0.60;;
44228;SDS011;29904;51.058;5.378;2023-03-31T14:52:59;3.83;;;0.90;;
44228;SDS011;29904;51.058;5.378;2023-03-31T14:55:26;2.17;;;0.50;;
44228;SDS011;29904;51.058;5.378;2023-03-31T14:57:54;2.17;;;0.50;;
44228;SDS011;29904;51.058;5.378;2023-03-31T15:00:26;2.33;;;0.65;;
44228;SDS011;29904;51.058;5.378;2023-03-31T15:02:55;1.60;;;0.40;;
44228;SDS011;29904;51.058;5.378;2023-03-31T15:05:30;1.23;;;0.40;;
44228;SDS011;29904;51.058;5.378;2023-03-31T15:07:58;2.70;;;0.60;;
44228;SDS011;29904;51.058;5.378;2023-03-31T15:10:41;1.45;;;0.40;;
44228;SDS011;29904;51.058;5.378;2023-03-31T15:13:19;1.75;;;0.40;;
44228;SDS011;29904;51.058;5.378;2023-03-31T15:16:48;1.83;;;0.50;;
44228;SDS011;29904;51.058;5.378;2023-03-31T15:18:56;1.40;;;0.40;;
44228;SDS011;29904;51.058;5.378;2023-03-31T15:21:25;2.25;;;0.50;;
44228;SDS011;29904;51.058;5.378;2023-03-31T15:23:56;2.30;;;0.30;;
44228;SDS011;29904;51.058;5.378;2023-03-31T15:26:27;1.88;;;0.40;;
44228;SDS011;29904;51.058;5.378;2023-03-31T15:29:21;1.30;;;0.30;;
44228;SDS011;29904;51.058;5.378;2023-03-31T15:31:57;1.88;;;0.30;;
44228;SDS011;29904;51.058;5.378;2023-03-31T15:34:29;1.00;;;0.30;;
44228;SDS011;29904;51.058;5.378;2023-03-31T15:37:00;1.40;;;0.30;;
44228;SDS011;29904;51.058;5.378;2023-03-31T15:39:27;0.85;;;0.30;;
44228;SDS011;29904;51.058;5.378;2023-03-31T15:41:55;1.50;;;0.47;;
44228;SDS011;29904;51.058;5.378;2023-03-31T15:44:38;1.50;;;0.30;;
44228;SDS011;29904;51.058;5.378;2023-03-31T15:47:20;1.35;;;0.30;;
44228;SDS011;29904;51.058;5.378;2023-03-31T15:52:27;2.78;;;0.47;;
44228;SDS011;29904;51.058;5.378;2023-03-31T15:54:59;1.20;;;0.30;;
44228;SDS011;29904;51.058;5.378;2023-03-31T15:57:33;1.30;;;0.30;;
44228;SDS011;29904;51.058;5.378;2023-03-31T16:00:00;0.80;;;0.40;;
44228;SDS011;29904;51.058;5.378;2023-03-31T16:02:37;1.83;;;0.40;;
44228;SDS011;29904;51.058;5.378;2023-03-31T16:05:15;2.75;;;0.40;;
44228;SDS011;29904;51.058;5.378;2023-03-31T16:07:55;2.20;;;0.60;;
44228;SDS011;29904;51.058;5.378;2023-03-31T16:10:22;2.10;;;0.60;;
44228;SDS011;29904;51.058;5.378;2023-03-31T16:12:50;3.17;;;0.50;;
44228;SDS011;29904;51.058;5.378;2023-03-31T16:15:27;2.15;;;0.60;;
44228;SDS011;29904;51.058;5.378;2023-03-31T16:18:01;1.95;;;0.50;;
44228;SDS011;29904;51.058;5.378;2023-03-31T16:20:33;2.08;;;0.60;;
44228;SDS011;29904;51.058;5.378;2023-03-31T16:23:01;1.77;;;0.70;;
44228;SDS011;29904;51.058;5.378;2023-03-31T16:25:38;2.65;;;1.40;;
44228;SDS011;29904;51.058;5.378;2023-03-31T16:28:05;1.52;;;0.80;;
44228;SDS011;29904;51.058;5.378;2023-03-31T16:30:37;3.75;;;0.70;;
44228;SDS011;29904;51.058;5.378;2023-03-31T16:33:06;2.40;;;0.50;;
44228;SDS011;29904;51.058;5.378;2023-03-31T16:35:34;3.00;;;0.70;;
44228;SDS011;29904;51.058;5.378;2023-03-31T16:38:02;2.60;;;0.80;;
44228;SDS011;29904;51.058;5.378;2023-03-31T16:40:29;2.58;;;0.80;;
44228;SDS011;29904;51.058;5.378;2023-03-31T16:45:58;3.30;;;0.93;;
44228;SDS011;29904;51.058;5.378;2023-03-31T16:48:26;2.27;;;0.70;;
44228;SDS011;29904;51.058;5.378;2023-03-31T16:50:54;4.03;;;0.73;;
44228;SDS011;29904;51.058;5.378;2023-03-31T16:53:39;3.10;;;0.65;;
44228;SDS011;29904;51.058;5.378;2023-03-31T16:56:06;2.08;;;0.60;;
44228;SDS011;29904;51.058;5.378;2023-03-31T16:58:33;4.90;;;0.98;;
44228;SDS011;29904;51.058;5.378;2023-03-31T17:01:06;4.25;;;1.00;;
44228;SDS011;29904;51.058;5.378;2023-03-31T17:03:32;3.83;;;0.98;;
44228;SDS011;29904;51.058;5.378;2023-03-31T17:06:03;4.90;;;0.90;;
44228;SDS011;29904;51.058;5.378;2023-03-31T17:08:31;3.65;;;0.80;;
44228;SDS011;29904;51.058;5.378;2023-03-31T17:11:01;2.50;;;0.90;;
44228;SDS011;29904;51.058;5.378;2023-03-31T17:13:31;3.30;;;0.93;;
44228;SDS011;29904;51.058;5.378;2023-03-31T17:15:58;4.68;;;0.90;;
44228;SDS011;29904;51.058;5.378;2023-03-31T17:18:24;4.40;;;1.10;;
44228;SDS011;29904;51.058;5.378;2023-03-31T17:20:51;4.22;;;0.82;;
44228;SDS011;29904;51.058;5.378;2023-03-31T17:23:20;3.85;;;0.98;;
44228;SDS011;29904;51.058;5.378;2023-03-31T17:25:47;3.47;;;0.80;;
44228;SDS011;29904;51.058;5.378;2023-03-31T17:28:14;4.75;;;0.80;;
44228;SDS011;29904;51.058;5.378;2023-03-31T17:30:42;4.65;;;0.90;;
44228;SDS011;29904;51.058;5.378;2023-03-31T17:33:11;4.20;;;0.55;;
44228;SDS011;29904;51.058;5.378;2023-03-31T17:35:38;3.33;;;0.70;;
44228;SDS011;29904;51.058;5.378;2023-03-31T17:38:03;4.43;;;0.80;;
44228;SDS011;29904;51.058;5.378;2023-03-31T17:40:29;4.05;;;0.70;;
44228;SDS011;29904;51.058;5.378;2023-03-31T17:42:57;3.80;;;0.80;;
44228;SDS011;29904;51.058;5.378;2023-03-31T17:45:27;3.33;;;0.70;;
44228;SDS011;29904;51.058;5.378;2023-03-31T17:47:53;3.65;;;0.70;;
44228;SDS011;29904;51.058;5.378;2023-03-31T17:50:20;3.80;;;0.70;;
44228;SDS011;29904;51.058;5.378;2023-03-31T17:52:45;4.15;;;0.90;;
44228;SDS011;29904;51.058;5.378;2023-03-31T17:55:11;4.88;;;0.90;;
44228;SDS011;29904;51.058;5.378;2023-03-31T17:57:38;2.80;;;0.77;;
44228;SDS011;29904;51.058;5.378;2023-03-31T18:00:05;2.78;;;0.90;;
44228;SDS011;29904;51.058;5.378;2023-03-31T18:02:37;4.03;;;1.10;;
44228;SDS011;29904;51.058;5.378;2023-03-31T18:05:04;4.10;;;1.00;;
44228;SDS011;29904;51.058;5.378;2023-03-31T18:07:31;3.72;;;0.95;;
44228;SDS011;29904;51.058;5.378;2023-03-31T18:09:57;2.72;;;0.80;;
44228;SDS011;29904;51.058;5.378;2023-03-31T18:12:23;3.95;;;0.80;;